Elkton, Michigan
Current Conditions -  °F | °C
As of 5:39 AM on Friday 31 Oct 2014 (Local Time) from KBAX Reporting Station
Light Rain Light Rain  
Wind Chill: 41°   Ceiling: 2400
Heat Index: 41°   Visibility: 5mi
Dew Point: 40°   Wind: 0mph
Humidity: 97%   Direction: NA
Pressure: 29.9"   Gusts: NA
Location:  43.82°N, 83.18°W
Report Text: KBAX 310939Z AUTO 00000KT 5SM -RA SCT019 BKN024 OVC045 05/05 A2990 RMK AO2 T00510047
Loading
Personal Weather Stations






























Interactive Weather Map
Tropical Storm Tracking
New forecast layout! Learn more

10-Day Weather Forecast

Advertisements
Track Severe Weather on mobile